sensor_id;sensor_type;location;lat;lon;timestamp;temperature;humidity
24408;DHT22;12542;50.924;4.516;2023-05-31T00:01:45;14.50;99.90
24408;DHT22;12542;50.924;4.516;2023-05-31T00:04:11;14.50;99.90
24408;DHT22;12542;50.924;4.516;2023-05-31T00:06:36;14.60;99.90
24408;DHT22;12542;50.924;4.516;2023-05-31T00:09:02;14.50;99.90
24408;DHT22;12542;50.924;4.516;2023-05-31T00:11:28;14.50;99.90
24408;DHT22;12542;50.924;4.516;2023-05-31T00:13:54;14.50;99.90
24408;DHT22;12542;50.924;4.516;2023-05-31T00:16:24;14.50;99.90
24408;DHT22;12542;50.924;4.516;2023-05-31T00:18:56;14.70;99.90
24408;DHT22;12542;50.924;4.516;2023-05-31T00:21:28;14.50;99.90
24408;DHT22;12542;50.924;4.516;2023-05-31T00:23:54;14.70;99.90
24408;DHT22;12542;50.924;4.516;2023-05-31T00:26:22;14.50;99.90
24408;DHT22;12542;50.924;4.516;2023-05-31T00:28:49;14.60;99.90
24408;DHT22;12542;50.924;4.516;2023-05-31T00:31:14;14.60;99.90
24408;DHT22;12542;50.924;4.516;2023-05-31T00:33:43;14.50;99.90
24408;DHT22;12542;50.924;4.516;2023-05-31T00:36:09;14.40;99.90
24408;DHT22;12542;50.924;4.516;2023-05-31T00:38:34;14.40;99.90
24408;DHT22;12542;50.924;4.516;2023-05-31T00:41:00;14.30;99.90
24408;DHT22;12542;50.924;4.516;2023-05-31T00:43:26;14.40;99.90
24408;DHT22;12542;50.924;4.516;2023-05-31T00:45:51;14.30;99.90
24408;DHT22;12542;50.924;4.516;2023-05-31T00:48:17;14.20;99.90
24408;DHT22;12542;50.924;4.516;2023-05-31T00:50:45;14.20;99.90
24408;DHT22;12542;50.924;4.516;2023-05-31T00:53:11;14.00;99.90
24408;DHT22;12542;50.924;4.516;2023-05-31T00:55:38;13.90;99.90
24408;DHT22;12542;50.924;4.516;2023-05-31T00:58:03;13.90;99.90
24408;DHT22;12542;50.924;4.516;2023-05-31T01:00:30;13.80;99.90
24408;DHT22;12542;50.924;4.516;2023-05-31T01:02:56;13.70;99.90
24408;DHT22;12542;50.924;4.516;2023-05-31T01:05:21;13.90;99.90
24408;DHT22;12542;50.924;4.516;2023-05-31T01:07:47;13.90;99.90
24408;DHT22;12542;50.924;4.516;2023-05-31T01:10:13;14.10;99.90
24408;DHT22;12542;50.924;4.516;2023-05-31T01:13:26;14.00;99.90
24408;DHT22;12542;50.924;4.516;2023-05-31T01:15:46;14.10;99.90
24408;DHT22;12542;50.924;4.516;2023-05-31T01:18:22;14.10;99.90
24408;DHT22;12542;50.924;4.516;2023-05-31T01:20:58;14.10;99.90
24408;DHT22;12542;50.924;4.516;2023-05-31T01:26:43;13.90;99.90
24408;DHT22;12542;50.924;4.516;2023-05-31T01:29:17;14.00;99.90
24408;DHT22;12542;50.924;4.516;2023-05-31T01:31:45;13.90;99.90
24408;DHT22;12542;50.924;4.516;2023-05-31T01:34:11;13.80;99.90
24408;DHT22;12542;50.924;4.516;2023-05-31T01:36:37;13.70;99.90
24408;DHT22;12542;50.924;4.516;2023-05-31T01:39:05;13.70;99.90
24408;DHT22;12542;50.924;4.516;2023-05-31T01:41:36;13.70;99.90
24408;DHT22;12542;50.924;4.516;2023-05-31T01:44:03;13.60;99.90
24408;DHT22;12542;50.924;4.516;2023-05-31T01:46:32;13.60;99.90
24408;DHT22;12542;50.924;4.516;2023-05-31T01:48:59;13.60;99.90
24408;DHT22;12542;50.924;4.516;2023-05-31T01:51:27;13.60;99.90
24408;DHT22;12542;50.924;4.516;2023-05-31T01:53:56;13.60;99.90
24408;DHT22;12542;50.924;4.516;2023-05-31T01:56:23;13.70;99.90
24408;DHT22;12542;50.924;4.516;2023-05-31T01:58:50;13.50;99.90
24408;DHT22;12542;50.924;4.516;2023-05-31T02:01:20;13.60;99.90
24408;DHT22;12542;50.924;4.516;2023-05-31T02:03:49;13.50;99.90
24408;DHT22;12542;50.924;4.516;2023-05-31T02:06:14;13.40;99.90
24408;DHT22;12542;50.924;4.516;2023-05-31T02:08:40;13.50;99.90
24408;DHT22;12542;50.924;4.516;2023-05-31T02:11:06;13.30;99.90
24408;DHT22;12542;50.924;4.516;2023-05-31T02:13:33;13.40;99.90
24408;DHT22;12542;50.924;4.516;2023-05-31T02:15:59;13.50;99.90
24408;DHT22;12542;50.924;4.516;2023-05-31T02:18:25;13.60;99.90
24408;DHT22;12542;50.924;4.516;2023-05-31T02:20:52;13.60;99.90
24408;DHT22;12542;50.924;4.516;2023-05-31T02:23:19;13.50;99.90
24408;DHT22;12542;50.924;4.516;2023-05-31T02:25:46;13.40;99.90
24408;DHT22;12542;50.924;4.516;2023-05-31T02:28:12;13.40;99.90
24408;DHT22;12542;50.924;4.516;2023-05-31T02:30:38;13.30;99.90
24408;DHT22;12542;50.924;4.516;2023-05-31T02:33:04;13.20;99.90
24408;DHT22;12542;50.924;4.516;2023-05-31T02:35:30;13.30;99.90
24408;DHT22;12542;50.924;4.516;2023-05-31T02:37:56;13.30;99.90
24408;DHT22;12542;50.924;4.516;2023-05-31T02:40:21;13.20;99.90
24408;DHT22;12542;50.924;4.516;2023-05-31T02:42:53;13.10;99.90
24408;DHT22;12542;50.924;4.516;2023-05-31T02:45:19;13.20;99.90
24408;DHT22;12542;50.924;4.516;2023-05-31T02:47:44;12.90;99.90
24408;DHT22;12542;50.924;4.516;2023-05-31T02:50:10;13.10;99.90
24408;DHT22;12542;50.924;4.516;2023-05-31T02:52:37;13.10;99.90
24408;DHT22;12542;50.924;4.516;2023-05-31T02:55:03;13.00;99.90
24408;DHT22;12542;50.924;4.516;2023-05-31T02:57:29;13.00;99.90
24408;DHT22;12542;50.924;4.516;2023-05-31T02:59:56;13.10;99.90
24408;DHT22;12542;50.924;4.516;2023-05-31T03:02:22;13.20;99.90
24408;DHT22;12542;50.924;4.516;2023-05-31T03:04:49;13.00;99.90
24408;DHT22;12542;50.924;4.516;2023-05-31T03:07:16;13.00;99.90
24408;DHT22;12542;50.924;4.516;2023-05-31T03:09:42;13.10;99.90
24408;DHT22;12542;50.924;4.516;2023-05-31T03:12:08;13.10;99.90
24408;DHT22;12542;50.924;4.516;2023-05-31T03:14:34;13.10;99.90
24408;DHT22;12542;50.924;4.516;2023-05-31T03:17:00;13.00;99.90
24408;DHT22;12542;50.924;4.516;2023-05-31T03:19:26;13.10;99.90
24408;DHT22;12542;50.924;4.516;2023-05-31T03:21:52;12.90;99.90
24408;DHT22;12542;50.924;4.516;2023-05-31T03:24:17;13.00;99.90
24408;DHT22;12542;50.924;4.516;2023-05-31T03:26:43;13.00;99.90
24408;DHT22;12542;50.924;4.516;2023-05-31T03:29:09;12.90;99.90
24408;DHT22;12542;50.924;4.516;2023-05-31T03:31:35;12.80;99.90
24408;DHT22;12542;50.924;4.516;2023-05-31T03:34:01;12.70;99.90
24408;DHT22;12542;50.924;4.516;2023-05-31T03:36:26;12.70;99.90
24408;DHT22;12542;50.924;4.516;2023-05-31T03:38:52;13.00;99.90
24408;DHT22;12542;50.924;4.516;2023-05-31T03:41:18;13.20;99.90
24408;DHT22;12542;50.924;4.516;2023-05-31T03:43:43;13.20;99.90
24408;DHT22;12542;50.924;4.516;2023-05-31T03:46:09;13.00;99.90
24408;DHT22;12542;50.924;4.516;2023-05-31T03:48:35;13.10;99.90
24408;DHT22;12542;50.924;4.516;2023-05-31T03:51:00;13.00;99.90
24408;DHT22;12542;50.924;4.516;2023-05-31T03:53:26;13.00;99.90
24408;DHT22;12542;50.924;4.516;2023-05-31T03:55:52;13.10;99.90
24408;DHT22;12542;50.924;4.516;2023-05-31T03:58:18;13.20;99.90
24408;DHT22;12542;50.924;4.516;2023-05-31T04:00:44;13.10;99.90
24408;DHT22;12542;50.924;4.516;2023-05-31T04:03:10;13.00;99.90
24408;DHT22;12542;50.924;4.516;2023-05-31T04:05:39;13.10;99.90
24408;DHT22;12542;50.924;4.516;2023-05-31T04:08:05;13.20;99.90
24408;DHT22;12542;50.924;4.516;2023-05-31T04:10:32;13.20;99.90
24408;DHT22;12542;50.924;4.516;2023-05-31T04:12:58;13.20;99.90
24408;DHT22;12542;50.924;4.516;2023-05-31T04:15:24;13.30;99.90
24408;DHT22;12542;50.924;4.516;2023-05-31T04:17:49;13.40;99.90
24408;DHT22;12542;50.924;4.516;2023-05-31T04:20:15;13.60;99.90
24408;DHT22;12542;50.924;4.516;2023-05-31T04:22:42;14.10;99.90
24408;DHT22;12542;50.924;4.516;2023-05-31T04:25:08;15.20;99.90
24408;DHT22;12542;50.924;4.516;2023-05-31T04:27:39;16.10;99.90
24408;DHT22;12542;50.924;4.516;2023-05-31T04:30:09;16.90;99.90
24408;DHT22;12542;50.924;4.516;2023-05-31T04:32:34;17.20;99.90
24408;DHT22;12542;50.924;4.516;2023-05-31T04:35:01;17.80;99.90
24408;DHT22;12542;50.924;4.516;2023-05-31T04:37:32;18.50;99.90
24408;DHT22;12542;50.924;4.516;2023-05-31T04:40:01;19.30;99.90
24408;DHT22;12542;50.924;4.516;2023-05-31T04:42:29;19.70;99.90
24408;DHT22;12542;50.924;4.516;2023-05-31T04:44:55;19.80;99.90
24408;DHT22;12542;50.924;4.516;2023-05-31T04:47:29;20.00;99.90
24408;DHT22;12542;50.924;4.516;2023-05-31T04:49:58;20.10;99.90
24408;DHT22;12542;50.924;4.516;2023-05-31T04:52:25;20.40;99.90
24408;DHT22;12542;50.924;4.516;2023-05-31T04:54:55;20.80;99.90
24408;DHT22;12542;50.924;4.516;2023-05-31T04:57:22;21.40;99.90
24408;DHT22;12542;50.924;4.516;2023-05-31T04:59:49;22.10;99.90
24408;DHT22;12542;50.924;4.516;2023-05-31T05:02:16;21.60;99.90
24408;DHT22;12542;50.924;4.516;2023-05-31T05:04:42;21.90;99.90
24408;DHT22;12542;50.924;4.516;2023-05-31T05:07:08;22.60;99.40
24408;DHT22;12542;50.924;4.516;2023-05-31T05:09:34;23.10;98.80
24408;DHT22;12542;50.924;4.516;2023-05-31T05:11:59;23.50;96.90
24408;DHT22;12542;50.924;4.516;2023-05-31T05:14:25;23.10;97.90
24408;DHT22;12542;50.924;4.516;2023-05-31T05:16:51;22.90;98.20
24408;DHT22;12542;50.924;4.516;2023-05-31T05:19:19;22.90;97.80
24408;DHT22;12542;50.924;4.516;2023-05-31T05:21:45;23.00;97.70
24408;DHT22;12542;50.924;4.516;2023-05-31T05:24:11;22.90;97.80
24408;DHT22;12542;50.924;4.516;2023-05-31T05:26:37;22.20;98.50
24408;DHT22;12542;50.924;4.516;2023-05-31T05:29:03;22.80;98.80
24408;DHT22;12542;50.924;4.516;2023-05-31T05:31:29;22.20;99.60
24408;DHT22;12542;50.924;4.516;2023-05-31T05:33:55;23.20;97.70
24408;DHT22;12542;50.924;4.516;2023-05-31T05:36:21;23.00;97.90
24408;DHT22;12542;50.924;4.516;2023-05-31T05:38:47;23.20;97.70
24408;DHT22;12542;50.924;4.516;2023-05-31T05:41:15;22.80;98.20
24408;DHT22;12542;50.924;4.516;2023-05-31T05:43:43;22.40;99.00
24408;DHT22;12542;50.924;4.516;2023-05-31T05:46:09;22.90;98.60
24408;DHT22;12542;50.924;4.516;2023-05-31T05:48:35;23.20;97.50
24408;DHT22;12542;50.924;4.516;2023-05-31T05:51:01;22.90;98.00
24408;DHT22;12542;50.924;4.516;2023-05-31T05:53:31;23.70;97.20
24408;DHT22;12542;50.924;4.516;2023-05-31T05:55:57;24.30;96.70
24408;DHT22;12542;50.924;4.516;2023-05-31T05:58:22;24.80;95.20
24408;DHT22;12542;50.924;4.516;2023-05-31T06:00:48;24.70;94.80
24408;DHT22;12542;50.924;4.516;2023-05-31T06:03:15;24.90;95.00
24408;DHT22;12542;50.924;4.516;2023-05-31T06:05:44;24.30;95.60
24408;DHT22;12542;50.924;4.516;2023-05-31T06:08:10;23.60;96.10
24408;DHT22;12542;50.924;4.516;2023-05-31T06:10:36;23.40;97.50
24408;DHT22;12542;50.924;4.516;2023-05-31T06:13:02;23.30;97.10
24408;DHT22;12542;50.924;4.516;2023-05-31T06:15:28;22.90;98.60
24408;DHT22;12542;50.924;4.516;2023-05-31T06:17:54;22.70;99.20
24408;DHT22;12542;50.924;4.516;2023-05-31T06:20:21;22.90;98.80
24408;DHT22;12542;50.924;4.516;2023-05-31T06:22:47;23.00;98.60
24408;DHT22;12542;50.924;4.516;2023-05-31T06:25:13;22.30;99.90
24408;DHT22;12542;50.924;4.516;2023-05-31T06:27:39;22.00;99.90
24408;DHT22;12542;50.924;4.516;2023-05-31T06:30:07;21.20;99.90
24408;DHT22;12542;50.924;4.516;2023-05-31T06:32:35;21.20;99.90
24408;DHT22;12542;50.924;4.516;2023-05-31T06:35:01;21.30;99.90
24408;DHT22;12542;50.924;4.516;2023-05-31T06:37:27;21.60;99.90
24408;DHT22;12542;50.924;4.516;2023-05-31T06:39:53;21.70;99.90
24408;DHT22;12542;50.924;4.516;2023-05-31T06:42:19;21.50;99.90
24408;DHT22;12542;50.924;4.516;2023-05-31T06:44:47;21.50;99.90
24408;DHT22;12542;50.924;4.516;2023-05-31T06:47:13;22.00;99.90
24408;DHT22;12542;50.924;4.516;2023-05-31T06:49:39;22.20;99.90
24408;DHT22;12542;50.924;4.516;2023-05-31T06:52:07;21.40;99.90
24408;DHT22;12542;50.924;4.516;2023-05-31T06:54:36;21.40;99.90
24408;DHT22;12542;50.924;4.516;2023-05-31T06:57:03;21.30;99.90
24408;DHT22;12542;50.924;4.516;2023-05-31T06:59:29;21.20;99.90
24408;DHT22;12542;50.924;4.516;2023-05-31T07:01:55;21.00;99.90
24408;DHT22;12542;50.924;4.516;2023-05-31T07:04:21;21.30;99.90
24408;DHT22;12542;50.924;4.516;2023-05-31T07:06:47;21.90;99.90
24408;DHT22;12542;50.924;4.516;2023-05-31T07:09:15;22.30;99.90
24408;DHT22;12542;50.924;4.516;2023-05-31T07:11:42;22.40;99.90
24408;DHT22;12542;50.924;4.516;2023-05-31T07:14:08;22.80;99.90
24408;DHT22;12542;50.924;4.516;2023-05-31T07:16:35;23.00;99.90
24408;DHT22;12542;50.924;4.516;2023-05-31T07:19:02;23.20;99.90
24408;DHT22;12542;50.924;4.516;2023-05-31T07:21:28;22.50;99.90
24408;DHT22;12542;50.924;4.516;2023-05-31T07:23:55;22.50;99.90
24408;DHT22;12542;50.924;4.516;2023-05-31T07:26:20;22.50;99.90
24408;DHT22;12542;50.924;4.516;2023-05-31T07:28:46;22.80;99.90
24408;DHT22;12542;50.924;4.516;2023-05-31T07:31:13;22.70;99.90
24408;DHT22;12542;50.924;4.516;2023-05-31T07:33:41;23.00;99.90
24408;DHT22;12542;50.924;4.516;2023-05-31T07:36:07;23.10;99.90
24408;DHT22;12542;50.924;4.516;2023-05-31T07:38:33;23.30;99.90
24408;DHT22;12542;50.924;4.516;2023-05-31T07:40:58;23.40;99.90
24408;DHT22;12542;50.924;4.516;2023-05-31T07:43:24;23.30;99.90
24408;DHT22;12542;50.924;4.516;2023-05-31T07:45:51;23.40;99.90
24408;DHT22;12542;50.924;4.516;2023-05-31T07:48:19;23.50;99.90
24408;DHT22;12542;50.924;4.516;2023-05-31T07:50:46;23.20;99.90
24408;DHT22;12542;50.924;4.516;2023-05-31T07:53:14;22.70;99.90
24408;DHT22;12542;50.924;4.516;2023-05-31T07:55:40;22.60;99.90
24408;DHT22;12542;50.924;4.516;2023-05-31T07:58:06;22.20;99.90
24408;DHT22;12542;50.924;4.516;2023-05-31T08:00:32;22.30;99.90
24408;DHT22;12542;50.924;4.516;2023-05-31T08:02:58;21.50;99.90
24408;DHT22;12542;50.924;4.516;2023-05-31T08:05:23;21.70;99.90
24408;DHT22;12542;50.924;4.516;2023-05-31T08:07:49;22.30;99.90
24408;DHT22;12542;50.924;4.516;2023-05-31T08:10:18;22.50;99.90
24408;DHT22;12542;50.924;4.516;2023-05-31T08:12:43;23.20;99.90
24408;DHT22;12542;50.924;4.516;2023-05-31T08:15:10;23.20;99.90
24408;DHT22;12542;50.924;4.516;2023-05-31T08:17:36;23.20;99.90
24408;DHT22;12542;50.924;4.516;2023-05-31T08:20:03;23.30;99.90
24408;DHT22;12542;50.924;4.516;2023-05-31T08:22:32;23.70;99.70
24408;DHT22;12542;50.924;4.516;2023-05-31T08:24:57;23.50;99.90
24408;DHT22;12542;50.924;4.516;2023-05-31T08:27:23;23.80;99.60
24408;DHT22;12542;50.924;4.516;2023-05-31T08:29:50;23.80;99.90
24408;DHT22;12542;50.924;4.516;2023-05-31T08:32:16;23.70;99.00
24408;DHT22;12542;50.924;4.516;2023-05-31T08:34:41;23.20;99.90
24408;DHT22;12542;50.924;4.516;2023-05-31T08:37:09;23.70;99.50
24408;DHT22;12542;50.924;4.516;2023-05-31T08:39:35;23.90;99.90
24408;DHT22;12542;50.924;4.516;2023-05-31T08:42:03;24.10;99.30
24408;DHT22;12542;50.924;4.516;2023-05-31T08:44:31;24.10;98.80
24408;DHT22;12542;50.924;4.516;2023-05-31T08:47:18;23.80;99.30
24408;DHT22;12542;50.924;4.516;2023-05-31T08:49:45;23.80;99.40
24408;DHT22;12542;50.924;4.516;2023-05-31T08:52:12;23.10;99.60
24408;DHT22;12542;50.924;4.516;2023-05-31T08:54:41;23.00;99.90
24408;DHT22;12542;50.924;4.516;2023-05-31T08:57:07;23.50;99.90
24408;DHT22;12542;50.924;4.516;2023-05-31T08:59:35;23.90;98.80
24408;DHT22;12542;50.924;4.516;2023-05-31T09:02:03;24.00;98.50
24408;DHT22;12542;50.924;4.516;2023-05-31T09:04:29;24.00;99.00
24408;DHT22;12542;50.924;4.516;2023-05-31T09:06:55;24.00;99.40
24408;DHT22;12542;50.924;4.516;2023-05-31T09:09:20;24.00;99.30
24408;DHT22;12542;50.924;4.516;2023-05-31T09:11:48;24.50;98.10
24408;DHT22;12542;50.924;4.516;2023-05-31T09:14:14;24.40;97.50
24408;DHT22;12542;50.924;4.516;2023-05-31T09:16:40;24.30;97.90
24408;DHT22;12542;50.924;4.516;2023-05-31T09:19:06;24.50;98.80
24408;DHT22;12542;50.924;4.516;2023-05-31T09:21:39;24.70;97.00
24408;DHT22;12542;50.924;4.516;2023-05-31T09:24:06;24.30;97.50
24408;DHT22;12542;50.924;4.516;2023-05-31T09:26:32;24.30;97.30
24408;DHT22;12542;50.924;4.516;2023-05-31T09:28:58;24.60;96.90
24408;DHT22;12542;50.924;4.516;2023-05-31T09:31:24;24.90;97.70
24408;DHT22;12542;50.924;4.516;2023-05-31T09:33:51;24.70;96.60
24408;DHT22;12542;50.924;4.516;2023-05-31T09:36:27;24.30;96.00
24408;DHT22;12542;50.924;4.516;2023-05-31T09:41:27;24.20;97.10
24408;DHT22;12542;50.924;4.516;2023-05-31T09:43:52;24.60;97.00
24408;DHT22;12542;50.924;4.516;2023-05-31T09:46:20;25.40;96.60
24408;DHT22;12542;50.924;4.516;2023-05-31T09:49:04;25.60;93.90
24408;DHT22;12542;50.924;4.516;2023-05-31T09:51:35;25.60;93.70
24408;DHT22;12542;50.924;4.516;2023-05-31T09:54:14;25.40;93.30
24408;DHT22;12542;50.924;4.516;2023-05-31T09:56:41;25.20;93.90
24408;DHT22;12542;50.924;4.516;2023-05-31T09:59:07;24.80;94.00
24408;DHT22;12542;50.924;4.516;2023-05-31T10:01:34;24.70;94.10
24408;DHT22;12542;50.924;4.516;2023-05-31T10:04:01;24.90;93.40
24408;DHT22;12542;50.924;4.516;2023-05-31T10:06:28;25.30;93.30
24408;DHT22;12542;50.924;4.516;2023-05-31T10:08:55;25.10;93.80
24408;DHT22;12542;50.924;4.516;2023-05-31T10:11:34;25.20;92.80
24408;DHT22;12542;50.924;4.516;2023-05-31T10:14:14;25.40;93.10
24408;DHT22;12542;50.924;4.516;2023-05-31T10:16:54;25.60;93.30
24408;DHT22;12542;50.924;4.516;2023-05-31T10:19:34;25.50;92.90
24408;DHT22;12542;50.924;4.516;2023-05-31T10:22:01;25.60;92.50
24408;DHT22;12542;50.924;4.516;2023-05-31T10:24:40;25.70;91.00
24408;DHT22;12542;50.924;4.516;2023-05-31T10:27:22;25.70;91.10
24408;DHT22;12542;50.924;4.516;2023-05-31T10:29:51;26.00;91.70
24408;DHT22;12542;50.924;4.516;2023-05-31T10:32:20;26.00;91.90
24408;DHT22;12542;50.924;4.516;2023-05-31T10:34:49;26.20;89.80
24408;DHT22;12542;50.924;4.516;2023-05-31T10:37:16;26.10;90.40
24408;DHT22;12542;50.924;4.516;2023-05-31T10:42:53;25.60;86.90
24408;DHT22;12542;50.924;4.516;2023-05-31T10:50:26;26.40;85.00
24408;DHT22;12542;50.924;4.516;2023-05-31T10:52:52;25.40;87.20
24408;DHT22;12542;50.924;4.516;2023-05-31T10:55:24;25.40;86.60
24408;DHT22;12542;50.924;4.516;2023-05-31T10:57:52;25.30;87.00
24408;DHT22;12542;50.924;4.516;2023-05-31T11:00:22;25.10;82.40
24408;DHT22;12542;50.924;4.516;2023-05-31T11:02:53;25.30;82.40
24408;DHT22;12542;50.924;4.516;2023-05-31T11:05:24;25.10;82.60
24408;DHT22;12542;50.924;4.516;2023-05-31T11:07:52;25.00;83.40
24408;DHT22;12542;50.924;4.516;2023-05-31T11:10:29;25.60;85.10
24408;DHT22;12542;50.924;4.516;2023-05-31T11:12:57;25.90;80.60
24408;DHT22;12542;50.924;4.516;2023-05-31T11:15:42;25.60;81.00
24408;DHT22;12542;50.924;4.516;2023-05-31T11:18:09;25.80;81.10
24408;DHT22;12542;50.924;4.516;2023-05-31T11:20:36;26.10;81.20
24408;DHT22;12542;50.924;4.516;2023-05-31T11:25:43;26.50;80.40
24408;DHT22;12542;50.924;4.516;2023-05-31T11:28:10;26.10;81.30
24408;DHT22;12542;50.924;4.516;2023-05-31T11:30:37;26.50;84.10
24408;DHT22;12542;50.924;4.516;2023-05-31T11:33:03;26.30;79.10
24408;DHT22;12542;50.924;4.516;2023-05-31T11:35:39;26.20;77.40
24408;DHT22;12542;50.924;4.516;2023-05-31T11:38:05;25.80;78.40
24408;DHT22;12542;50.924;4.516;2023-05-31T11:40:32;25.90;81.50
24408;DHT22;12542;50.924;4.516;2023-05-31T11:43:06;25.50;78.90
24408;DHT22;12542;50.924;4.516;2023-05-31T11:45:33;25.50;81.70
24408;DHT22;12542;50.924;4.516;2023-05-31T11:50:38;25.80;80.40
24408;DHT22;12542;50.924;4.516;2023-05-31T11:53:04;26.00;77.50
24408;DHT22;12542;50.924;4.516;2023-05-31T11:55:32;25.70;80.10
24408;DHT22;12542;50.924;4.516;2023-05-31T11:58:01;26.20;80.70
24408;DHT22;12542;50.924;4.516;2023-05-31T12:00:30;26.20;76.50
24408;DHT22;12542;50.924;4.516;2023-05-31T12:02:57;25.70;76.80
24408;DHT22;12542;50.924;4.516;2023-05-31T12:05:23;25.70;78.40
24408;DHT22;12542;50.924;4.516;2023-05-31T12:07:53;25.70;80.50
24408;DHT22;12542;50.924;4.516;2023-05-31T12:10:19;26.20;78.20
24408;DHT22;12542;50.924;4.516;2023-05-31T12:12:48;26.20;78.60
24408;DHT22;12542;50.924;4.516;2023-05-31T12:15:16;26.20;76.50
24408;DHT22;12542;50.924;4.516;2023-05-31T12:17:42;26.10;78.50
24408;DHT22;12542;50.924;4.516;2023-05-31T12:20:09;26.10;76.70
24408;DHT22;12542;50.924;4.516;2023-05-31T12:22:36;26.30;77.10
24408;DHT22;12542;50.924;4.516;2023-05-31T12:25:02;26.30;76.70
24408;DHT22;12542;50.924;4.516;2023-05-31T12:27:28;25.80;76.60
24408;DHT22;12542;50.924;4.516;2023-05-31T12:29:56;26.10;79.90
24408;DHT22;12542;50.924;4.516;2023-05-31T12:32:22;26.00;79.70
24408;DHT22;12542;50.924;4.516;2023-05-31T12:34:53;26.30;77.30
24408;DHT22;12542;50.924;4.516;2023-05-31T12:37:27;25.90;77.30
24408;DHT22;12542;50.924;4.516;2023-05-31T12:40:10;26.00;78.50
24408;DHT22;12542;50.924;4.516;2023-05-31T12:42:37;26.40;79.00
24408;DHT22;12542;50.924;4.516;2023-05-31T12:45:07;26.50;76.70
24408;DHT22;12542;50.924;4.516;2023-05-31T12:47:33;26.30;75.40
24408;DHT22;12542;50.924;4.516;2023-05-31T12:50:01;26.00;76.60
24408;DHT22;12542;50.924;4.516;2023-05-31T12:52:38;25.80;78.70
24408;DHT22;12542;50.924;4.516;2023-05-31T12:55:07;26.20;79.00
24408;DHT22;12542;50.924;4.516;2023-05-31T12:57:34;26.50;77.40
24408;DHT22;12542;50.924;4.516;2023-05-31T13:00:08;26.60;78.30
24408;DHT22;12542;50.924;4.516;2023-05-31T13:02:37;26.80;77.70
24408;DHT22;12542;50.924;4.516;2023-05-31T13:05:06;26.50;78.00
24408;DHT22;12542;50.924;4.516;2023-05-31T13:07:33;26.80;77.70
24408;DHT22;12542;50.924;4.516;2023-05-31T13:10:01;26.50;77.30
24408;DHT22;12542;50.924;4.516;2023-05-31T13:12:29;26.30;78.20
24408;DHT22;12542;50.924;4.516;2023-05-31T13:14:55;26.40;79.30
24408;DHT22;12542;50.924;4.516;2023-05-31T13:17:21;26.50;78.00
24408;DHT22;12542;50.924;4.516;2023-05-31T13:19:47;26.60;76.70
24408;DHT22;12542;50.924;4.516;2023-05-31T13:22:13;26.80;78.20
24408;DHT22;12542;50.924;4.516;2023-05-31T13:24:39;27.00;76.10
24408;DHT22;12542;50.924;4.516;2023-05-31T13:27:05;26.60;77.60
24408;DHT22;12542;50.924;4.516;2023-05-31T13:29:31;26.90;78.00
24408;DHT22;12542;50.924;4.516;2023-05-31T13:31:57;27.10;77.70
24408;DHT22;12542;50.924;4.516;2023-05-31T13:34:23;26.90;77.60
24408;DHT22;12542;50.924;4.516;2023-05-31T13:36:49;26.90;75.60
24408;DHT22;12542;50.924;4.516;2023-05-31T13:39:15;26.60;74.70
24408;DHT22;12542;50.924;4.516;2023-05-31T13:41:42;26.60;75.70
24408;DHT22;12542;50.924;4.516;2023-05-31T13:44:09;26.50;76.60
24408;DHT22;12542;50.924;4.516;2023-05-31T13:46:34;26.60;77.40
24408;DHT22;12542;50.924;4.516;2023-05-31T13:49:01;26.70;77.10
24408;DHT22;12542;50.924;4.516;2023-05-31T13:51:26;26.70;76.20
24408;DHT22;12542;50.924;4.516;2023-05-31T13:53:52;26.80;75.80
24408;DHT22;12542;50.924;4.516;2023-05-31T13:56:18;27.00;75.40
24408;DHT22;12542;50.924;4.516;2023-05-31T13:58:44;26.80;74.00
24408;DHT22;12542;50.924;4.516;2023-05-31T14:01:09;26.80;76.00
24408;DHT22;12542;50.924;4.516;2023-05-31T14:03:39;27.00;75.60
24408;DHT22;12542;50.924;4.516;2023-05-31T14:06:06;27.40;74.60
24408;DHT22;12542;50.924;4.516;2023-05-31T14:08:32;27.60;74.60
24408;DHT22;12542;50.924;4.516;2023-05-31T14:10:58;27.40;73.10
24408;DHT22;12542;50.924;4.516;2023-05-31T14:13:24;27.20;74.30
24408;DHT22;12542;50.924;4.516;2023-05-31T14:15:51;26.90;72.20
24408;DHT22;12542;50.924;4.516;2023-05-31T14:18:17;26.50;72.80
24408;DHT22;12542;50.924;4.516;2023-05-31T14:20:44;26.70;75.50
24408;DHT22;12542;50.924;4.516;2023-05-31T14:23:10;26.80;75.70
24408;DHT22;12542;50.924;4.516;2023-05-31T14:25:36;27.00;74.00
24408;DHT22;12542;50.924;4.516;2023-05-31T14:28:01;26.60;74.60
24408;DHT22;12542;50.924;4.516;2023-05-31T14:30:29;26.40;74.50
24408;DHT22;12542;50.924;4.516;2023-05-31T14:32:55;26.50;76.60
24408;DHT22;12542;50.924;4.516;2023-05-31T14:35:21;26.50;76.00
24408;DHT22;12542;50.924;4.516;2023-05-31T14:37:47;26.70;76.10
24408;DHT22;12542;50.924;4.516;2023-05-31T14:40:13;26.90;73.50
24408;DHT22;12542;50.924;4.516;2023-05-31T14:42:42;26.80;74.10
24408;DHT22;12542;50.924;4.516;2023-05-31T14:45:08;26.50;75.90
24408;DHT22;12542;50.924;4.516;2023-05-31T14:47:36;26.60;77.30
24408;DHT22;12542;50.924;4.516;2023-05-31T14:50:05;26.50;76.40
24408;DHT22;12542;50.924;4.516;2023-05-31T14:52:31;26.60;76.50
24408;DHT22;12542;50.924;4.516;2023-05-31T14:54:56;26.60;76.70
24408;DHT22;12542;50.924;4.516;2023-05-31T14:57:22;26.60;76.20
24408;DHT22;12542;50.924;4.516;2023-05-31T14:59:48;26.70;77.30
24408;DHT22;12542;50.924;4.516;2023-05-31T15:02:13;26.80;77.00
24408;DHT22;12542;50.924;4.516;2023-05-31T15:04:39;26.90;76.40
24408;DHT22;12542;50.924;4.516;2023-05-31T15:07:06;26.90;75.30
24408;DHT22;12542;50.924;4.516;2023-05-31T15:09:31;26.80;75.80
24408;DHT22;12542;50.924;4.516;2023-05-31T15:11:57;26.60;75.10
24408;DHT22;12542;50.924;4.516;2023-05-31T15:14:23;26.40;77.30
24408;DHT22;12542;50.924;4.516;2023-05-31T15:16:48;26.40;77.00
24408;DHT22;12542;50.924;4.516;2023-05-31T15:19:14;26.40;77.20
24408;DHT22;12542;50.924;4.516;2023-05-31T15:21:40;26.40;75.60
24408;DHT22;12542;50.924;4.516;2023-05-31T15:24:06;26.50;75.70
24408;DHT22;12542;50.924;4.516;2023-05-31T15:26:32;26.20;76.20
24408;DHT22;12542;50.924;4.516;2023-05-31T15:28:57;26.40;77.70
24408;DHT22;12542;50.924;4.516;2023-05-31T15:31:24;26.40;78.70
24408;DHT22;12542;50.924;4.516;2023-05-31T15:33:50;26.40;78.00
24408;DHT22;12542;50.924;4.516;2023-05-31T15:36:16;26.20;77.30
24408;DHT22;12542;50.924;4.516;2023-05-31T15:38:41;26.10;78.20
24408;DHT22;12542;50.924;4.516;2023-05-31T15:41:07;26.10;77.80
24408;DHT22;12542;50.924;4.516;2023-05-31T15:43:33;26.20;78.10
24408;DHT22;12542;50.924;4.516;2023-05-31T15:45:59;26.20;78.60
24408;DHT22;12542;50.924;4.516;2023-05-31T15:48:26;26.20;78.90
24408;DHT22;12542;50.924;4.516;2023-05-31T15:50:52;26.30;78.90